sensor_id;sensor_type;location;lat;lon;timestamp;temperature;humidity
25556;DHT22;13447;57.174;-2.112;2023-01-15T00:02:06;4.20;99.90
25556;DHT22;13447;57.174;-2.112;2023-01-15T00:04:33;4.10;99.90
25556;DHT22;13447;57.174;-2.112;2023-01-15T00:07:00;4.10;99.90
25556;DHT22;13447;57.174;-2.112;2023-01-15T00:09:27;4.00;99.90
25556;DHT22;13447;57.174;-2.112;2023-01-15T00:11:54;4.00;99.90
25556;DHT22;13447;57.174;-2.112;2023-01-15T00:14:21;3.90;99.90
25556;DHT22;13447;57.174;-2.112;2023-01-15T00:16:52;3.90;99.90
25556;DHT22;13447;57.174;-2.112;2023-01-15T00:19:19;3.80;99.90
25556;DHT22;13447;57.174;-2.112;2023-01-15T00:21:46;3.90;99.90
25556;DHT22;13447;57.174;-2.112;2023-01-15T00:24:13;3.90;1.00
25556;DHT22;13447;57.174;-2.112;2023-01-15T00:26:58;3.90;1.00
25556;DHT22;13447;57.174;-2.112;2023-01-15T00:29:44;3.90;1.00
25556;DHT22;13447;57.174;-2.112;2023-01-15T00:32:11;3.90;1.00
25556;DHT22;13447;57.174;-2.112;2023-01-15T00:34:38;3.90;1.00
25556;DHT22;13447;57.174;-2.112;2023-01-15T00:37:05;4.10;1.00
25556;DHT22;13447;57.174;-2.112;2023-01-15T00:39:32;4.10;1.00
25556;DHT22;13447;57.174;-2.112;2023-01-15T00:42:00;4.20;1.00
25556;DHT22;13447;57.174;-2.112;2023-01-15T00:44:27;4.30;1.00
25556;DHT22;13447;57.174;-2.112;2023-01-15T00:46:54;4.30;1.00
25556;DHT22;13447;57.174;-2.112;2023-01-15T00:49:21;4.40;1.00
25556;DHT22;13447;57.174;-2.112;2023-01-15T00:51:48;4.50;1.00
25556;DHT22;13447;57.174;-2.112;2023-01-15T00:54:17;4.50;1.00
25556;DHT22;13447;57.174;-2.112;2023-01-15T00:56:44;4.50;1.00
25556;DHT22;13447;57.174;-2.112;2023-01-15T00:59:11;4.50;1.00
25556;DHT22;13447;57.174;-2.112;2023-01-15T01:01:39;4.50;1.00
25556;DHT22;13447;57.174;-2.112;2023-01-15T01:04:06;4.50;1.00
25556;DHT22;13447;57.174;-2.112;2023-01-15T01:06:33;4.40;1.00
25556;DHT22;13447;57.174;-2.112;2023-01-15T01:09:00;4.40;1.00
25556;DHT22;13447;57.174;-2.112;2023-01-15T01:11:27;4.40;1.00
25556;DHT22;13447;57.174;-2.112;2023-01-15T01:13:59;4.40;1.00
25556;DHT22;13447;57.174;-2.112;2023-01-15T01:18:58;4.40;1.00
25556;DHT22;13447;57.174;-2.112;2023-01-15T01:21:26;4.50;1.00
25556;DHT22;13447;57.174;-2.112;2023-01-15T01:23:53;4.50;1.00
25556;DHT22;13447;57.174;-2.112;2023-01-15T01:26:20;4.50;1.00
25556;DHT22;13447;57.174;-2.112;2023-01-15T01:28:49;4.40;1.00
25556;DHT22;13447;57.174;-2.112;2023-01-15T01:31:16;4.40;1.00
25556;DHT22;13447;57.174;-2.112;2023-01-15T01:33:44;4.40;1.00
25556;DHT22;13447;57.174;-2.112;2023-01-15T01:36:10;4.40;1.00
25556;DHT22;13447;57.174;-2.112;2023-01-15T01:38:37;4.40;1.00
25556;DHT22;13447;57.174;-2.112;2023-01-15T01:41:05;4.40;1.00
25556;DHT22;13447;57.174;-2.112;2023-01-15T01:44:06;4.40;1.00
25556;DHT22;13447;57.174;-2.112;2023-01-15T01:46:35;4.30;1.00
25556;DHT22;13447;57.174;-2.112;2023-01-15T01:49:09;4.30;1.00
25556;DHT22;13447;57.174;-2.112;2023-01-15T01:51:40;4.30;1.00
25556;DHT22;13447;57.174;-2.112;2023-01-15T01:54:11;4.30;1.00
25556;DHT22;13447;57.174;-2.112;2023-01-15T01:56:38;4.30;1.00
25556;DHT22;13447;57.174;-2.112;2023-01-15T01:59:06;4.40;1.00
25556;DHT22;13447;57.174;-2.112;2023-01-15T02:01:34;4.40;1.00
25556;DHT22;13447;57.174;-2.112;2023-01-15T02:04:04;4.40;1.00
25556;DHT22;13447;57.174;-2.112;2023-01-15T02:06:32;4.40;1.00
25556;DHT22;13447;57.174;-2.112;2023-01-15T02:08:58;4.50;1.00
25556;DHT22;13447;57.174;-2.112;2023-01-15T02:11:26;4.60;1.00
25556;DHT22;13447;57.174;-2.112;2023-01-15T02:14:30;4.60;1.00
25556;DHT22;13447;57.174;-2.112;2023-01-15T02:17:05;4.70;1.00
25556;DHT22;13447;57.174;-2.112;2023-01-15T02:22:42;4.80;1.00
25556;DHT22;13447;57.174;-2.112;2023-01-15T02:28:26;4.90;1.00
25556;DHT22;13447;57.174;-2.112;2023-01-15T02:31:18;4.90;1.00
25556;DHT22;13447;57.174;-2.112;2023-01-15T02:33:57;4.90;1.00
25556;DHT22;13447;57.174;-2.112;2023-01-15T02:36:29;4.90;1.00
25556;DHT22;13447;57.174;-2.112;2023-01-15T02:38:58;4.80;1.00
25556;DHT22;13447;57.174;-2.112;2023-01-15T02:41:37;4.80;1.00
25556;DHT22;13447;57.174;-2.112;2023-01-15T02:44:11;4.80;1.00
25556;DHT22;13447;57.174;-2.112;2023-01-15T02:46:40;4.80;1.00
25556;DHT22;13447;57.174;-2.112;2023-01-15T02:49:12;4.80;1.00
25556;DHT22;13447;57.174;-2.112;2023-01-15T02:51:50;4.80;1.00
25556;DHT22;13447;57.174;-2.112;2023-01-15T02:54:19;4.80;1.00
25556;DHT22;13447;57.174;-2.112;2023-01-15T02:56:48;4.90;1.00
25556;DHT22;13447;57.174;-2.112;2023-01-15T02:59:29;4.90;1.00
25556;DHT22;13447;57.174;-2.112;2023-01-15T03:02:00;4.80;1.00
25556;DHT22;13447;57.174;-2.112;2023-01-15T03:04:37;4.80;1.00
25556;DHT22;13447;57.174;-2.112;2023-01-15T03:07:41;4.80;1.00
25556;DHT22;13447;57.174;-2.112;2023-01-15T03:10:10;4.80;1.00
25556;DHT22;13447;57.174;-2.112;2023-01-15T03:12:46;4.70;1.00
25556;DHT22;13447;57.174;-2.112;2023-01-15T03:16:00;4.70;1.00
25556;DHT22;13447;57.174;-2.112;2023-01-15T03:27:00;4.40;1.00
25556;DHT22;13447;57.174;-2.112;2023-01-15T03:29:30;4.40;1.00
25556;DHT22;13447;57.174;-2.112;2023-01-15T03:31:59;4.40;1.00
25556;DHT22;13447;57.174;-2.112;2023-01-15T03:34:30;4.50;1.00
25556;DHT22;13447;57.174;-2.112;2023-01-15T03:36:59;4.50;1.00
25556;DHT22;13447;57.174;-2.112;2023-01-15T03:39:26;4.60;1.00
25556;DHT22;13447;57.174;-2.112;2023-01-15T03:42:14;4.70;1.00
25556;DHT22;13447;57.174;-2.112;2023-01-15T03:45:14;4.70;1.00
25556;DHT22;13447;57.174;-2.112;2023-01-15T03:48:02;4.70;1.00
25556;DHT22;13447;57.174;-2.112;2023-01-15T03:50:46;4.70;1.00
25556;DHT22;13447;57.174;-2.112;2023-01-15T03:53:17;4.70;1.00
25556;DHT22;13447;57.174;-2.112;2023-01-15T03:56:02;4.70;1.00
25556;DHT22;13447;57.174;-2.112;2023-01-15T03:58:42;4.70;1.00
25556;DHT22;13447;57.174;-2.112;2023-01-15T04:01:12;4.70;1.00
25556;DHT22;13447;57.174;-2.112;2023-01-15T04:03:42;4.70;1.00
25556;DHT22;13447;57.174;-2.112;2023-01-15T04:06:10;4.70;1.00
25556;DHT22;13447;57.174;-2.112;2023-01-15T04:08:39;4.70;1.00
25556;DHT22;13447;57.174;-2.112;2023-01-15T04:11:07;4.70;1.00
25556;DHT22;13447;57.174;-2.112;2023-01-15T04:13:34;4.80;1.00
25556;DHT22;13447;57.174;-2.112;2023-01-15T04:16:02;4.80;1.00
25556;DHT22;13447;57.174;-2.112;2023-01-15T04:18:29;4.80;1.00
25556;DHT22;13447;57.174;-2.112;2023-01-15T04:20:56;4.80;1.00
25556;DHT22;13447;57.174;-2.112;2023-01-15T04:23:23;4.80;1.00
25556;DHT22;13447;57.174;-2.112;2023-01-15T04:25:50;4.80;1.00
25556;DHT22;13447;57.174;-2.112;2023-01-15T04:28:17;4.80;1.00
25556;DHT22;13447;57.174;-2.112;2023-01-15T04:30:44;4.80;1.00
25556;DHT22;13447;57.174;-2.112;2023-01-15T04:33:12;4.70;1.00
25556;DHT22;13447;57.174;-2.112;2023-01-15T04:35:39;4.80;1.00
25556;DHT22;13447;57.174;-2.112;2023-01-15T04:38:07;4.80;1.00
25556;DHT22;13447;57.174;-2.112;2023-01-15T04:40:34;4.70;1.00
25556;DHT22;13447;57.174;-2.112;2023-01-15T04:43:19;4.70;1.00
25556;DHT22;13447;57.174;-2.112;2023-01-15T04:46:05;4.70;1.00
25556;DHT22;13447;57.174;-2.112;2023-01-15T04:48:32;4.70;1.00
25556;DHT22;13447;57.174;-2.112;2023-01-15T04:51:03;4.70;1.00
25556;DHT22;13447;57.174;-2.112;2023-01-15T04:53:31;4.70;1.00
25556;DHT22;13447;57.174;-2.112;2023-01-15T04:56:03;4.60;1.00
25556;DHT22;13447;57.174;-2.112;2023-01-15T04:58:30;4.70;1.00
25556;DHT22;13447;57.174;-2.112;2023-01-15T05:00:57;4.60;1.00
25556;DHT22;13447;57.174;-2.112;2023-01-15T05:03:28;4.60;1.00
25556;DHT22;13447;57.174;-2.112;2023-01-15T05:05:59;4.60;1.00
25556;DHT22;13447;57.174;-2.112;2023-01-15T05:08:27;4.60;1.00
25556;DHT22;13447;57.174;-2.112;2023-01-15T05:10:54;4.60;1.00
25556;DHT22;13447;57.174;-2.112;2023-01-15T05:13:21;4.60;1.00
25556;DHT22;13447;57.174;-2.112;2023-01-15T05:15:48;4.60;1.00
25556;DHT22;13447;57.174;-2.112;2023-01-15T05:18:15;4.60;1.00
25556;DHT22;13447;57.174;-2.112;2023-01-15T05:20:41;4.60;1.00
25556;DHT22;13447;57.174;-2.112;2023-01-15T05:23:08;4.50;1.00
25556;DHT22;13447;57.174;-2.112;2023-01-15T05:25:36;4.60;1.00
25556;DHT22;13447;57.174;-2.112;2023-01-15T05:28:03;4.50;1.00
25556;DHT22;13447;57.174;-2.112;2023-01-15T05:30:30;4.60;1.00
25556;DHT22;13447;57.174;-2.112;2023-01-15T05:32:57;4.50;1.00
25556;DHT22;13447;57.174;-2.112;2023-01-15T05:35:24;4.50;1.00
25556;DHT22;13447;57.174;-2.112;2023-01-15T05:37:50;4.50;1.00
25556;DHT22;13447;57.174;-2.112;2023-01-15T05:40:17;4.50;1.00
25556;DHT22;13447;57.174;-2.112;2023-01-15T05:42:44;4.60;1.00
25556;DHT22;13447;57.174;-2.112;2023-01-15T05:45:11;4.60;1.00
25556;DHT22;13447;57.174;-2.112;2023-01-15T05:47:38;4.60;1.00
25556;DHT22;13447;57.174;-2.112;2023-01-15T05:50:05;4.60;1.00
25556;DHT22;13447;57.174;-2.112;2023-01-15T05:52:32;4.70;1.00
25556;DHT22;13447;57.174;-2.112;2023-01-15T05:54:59;4.60;1.00
25556;DHT22;13447;57.174;-2.112;2023-01-15T05:57:26;4.60;1.00
25556;DHT22;13447;57.174;-2.112;2023-01-15T05:59:53;4.60;1.00
25556;DHT22;13447;57.174;-2.112;2023-01-15T06:02:21;4.50;1.00
25556;DHT22;13447;57.174;-2.112;2023-01-15T06:04:48;4.50;1.00
25556;DHT22;13447;57.174;-2.112;2023-01-15T06:07:15;4.50;1.00
25556;DHT22;13447;57.174;-2.112;2023-01-15T06:09:45;4.40;1.00
25556;DHT22;13447;57.174;-2.112;2023-01-15T06:12:12;4.40;1.00
25556;DHT22;13447;57.174;-2.112;2023-01-15T06:14:39;4.30;1.00
25556;DHT22;13447;57.174;-2.112;2023-01-15T06:17:06;4.30;1.00
25556;DHT22;13447;57.174;-2.112;2023-01-15T06:19:33;4.30;1.00
25556;DHT22;13447;57.174;-2.112;2023-01-15T06:21:59;4.30;1.00
25556;DHT22;13447;57.174;-2.112;2023-01-15T06:24:26;4.40;1.00
25556;DHT22;13447;57.174;-2.112;2023-01-15T06:26:53;4.30;1.00
25556;DHT22;13447;57.174;-2.112;2023-01-15T06:29:20;4.30;1.00
25556;DHT22;13447;57.174;-2.112;2023-01-15T06:31:47;4.30;1.00
25556;DHT22;13447;57.174;-2.112;2023-01-15T06:34:15;4.40;1.00
25556;DHT22;13447;57.174;-2.112;2023-01-15T06:36:42;4.40;1.00
25556;DHT22;13447;57.174;-2.112;2023-01-15T06:39:09;4.40;1.00
25556;DHT22;13447;57.174;-2.112;2023-01-15T06:41:36;4.40;1.00
25556;DHT22;13447;57.174;-2.112;2023-01-15T06:44:25;4.50;99.90
25556;DHT22;13447;57.174;-2.112;2023-01-15T06:47:16;4.50;99.90
25556;DHT22;13447;57.174;-2.112;2023-01-15T06:49:53;4.50;99.90
25556;DHT22;13447;57.174;-2.112;2023-01-15T06:52:24;4.50;99.90
25556;DHT22;13447;57.174;-2.112;2023-01-15T06:54:52;4.50;99.90
25556;DHT22;13447;57.174;-2.112;2023-01-15T06:57:19;4.40;99.90
25556;DHT22;13447;57.174;-2.112;2023-01-15T06:59:47;4.50;1.00
25556;DHT22;13447;57.174;-2.112;2023-01-15T07:02:14;4.50;1.00
25556;DHT22;13447;57.174;-2.112;2023-01-15T07:04:43;4.50;1.00
25556;DHT22;13447;57.174;-2.112;2023-01-15T07:07:10;4.50;1.00
25556;DHT22;13447;57.174;-2.112;2023-01-15T07:09:37;4.50;1.00
25556;DHT22;13447;57.174;-2.112;2023-01-15T07:12:04;4.50;99.90
25556;DHT22;13447;57.174;-2.112;2023-01-15T07:14:31;4.50;99.90
25556;DHT22;13447;57.174;-2.112;2023-01-15T07:16:58;4.50;99.90
25556;DHT22;13447;57.174;-2.112;2023-01-15T07:19:25;4.60;99.90
25556;DHT22;13447;57.174;-2.112;2023-01-15T07:21:53;4.60;99.90
25556;DHT22;13447;57.174;-2.112;2023-01-15T07:24:20;4.60;99.90
25556;DHT22;13447;57.174;-2.112;2023-01-15T07:26:47;4.60;99.90
25556;DHT22;13447;57.174;-2.112;2023-01-15T07:29:14;4.60;99.90
25556;DHT22;13447;57.174;-2.112;2023-01-15T07:31:41;4.60;99.90
25556;DHT22;13447;57.174;-2.112;2023-01-15T07:34:09;4.60;99.90
25556;DHT22;13447;57.174;-2.112;2023-01-15T07:36:36;4.50;99.90
25556;DHT22;13447;57.174;-2.112;2023-01-15T07:39:04;4.50;99.90
25556;DHT22;13447;57.174;-2.112;2023-01-15T07:41:31;4.50;99.90
25556;DHT22;13447;57.174;-2.112;2023-01-15T07:44:17;4.50;99.90
25556;DHT22;13447;57.174;-2.112;2023-01-15T07:47:19;4.50;99.90
25556;DHT22;13447;57.174;-2.112;2023-01-15T07:50:11;4.50;99.90
25556;DHT22;13447;57.174;-2.112;2023-01-15T07:52:38;4.50;99.90
25556;DHT22;13447;57.174;-2.112;2023-01-15T07:55:05;4.50;99.90
25556;DHT22;13447;57.174;-2.112;2023-01-15T07:57:34;4.40;99.90
25556;DHT22;13447;57.174;-2.112;2023-01-15T08:00:03;4.50;99.90
25556;DHT22;13447;57.174;-2.112;2023-01-15T08:02:30;4.50;99.90
25556;DHT22;13447;57.174;-2.112;2023-01-15T08:04:57;4.50;99.90
25556;DHT22;13447;57.174;-2.112;2023-01-15T08:07:23;4.50;99.90
25556;DHT22;13447;57.174;-2.112;2023-01-15T08:09:51;4.50;99.90
25556;DHT22;13447;57.174;-2.112;2023-01-15T08:12:18;4.60;99.90
25556;DHT22;13447;57.174;-2.112;2023-01-15T08:15:04;4.60;99.90
25556;DHT22;13447;57.174;-2.112;2023-01-15T08:17:42;4.60;99.90
25556;DHT22;13447;57.174;-2.112;2023-01-15T08:20:21;4.60;99.90
25556;DHT22;13447;57.174;-2.112;2023-01-15T08:22:49;4.70;99.90
25556;DHT22;13447;57.174;-2.112;2023-01-15T08:25:19;4.70;99.90
25556;DHT22;13447;57.174;-2.112;2023-01-15T08:27:46;4.60;99.90
25556;DHT22;13447;57.174;-2.112;2023-01-15T08:30:16;4.60;99.90
25556;DHT22;13447;57.174;-2.112;2023-01-15T08:32:43;4.60;99.90
25556;DHT22;13447;57.174;-2.112;2023-01-15T08:35:11;4.50;99.90
25556;DHT22;13447;57.174;-2.112;2023-01-15T08:37:40;4.50;99.90
25556;DHT22;13447;57.174;-2.112;2023-01-15T08:40:10;4.50;99.90
25556;DHT22;13447;57.174;-2.112;2023-01-15T08:42:37;4.50;99.90
25556;DHT22;13447;57.174;-2.112;2023-01-15T08:45:05;4.50;99.90
25556;DHT22;13447;57.174;-2.112;2023-01-15T08:47:32;4.50;99.90
25556;DHT22;13447;57.174;-2.112;2023-01-15T08:49:59;4.50;99.90
25556;DHT22;13447;57.174;-2.112;2023-01-15T08:52:26;4.50;99.90
25556;DHT22;13447;57.174;-2.112;2023-01-15T08:54:53;4.50;99.90
25556;DHT22;13447;57.174;-2.112;2023-01-15T08:57:20;4.50;99.90
25556;DHT22;13447;57.174;-2.112;2023-01-15T08:59:47;4.50;99.90
25556;DHT22;13447;57.174;-2.112;2023-01-15T09:02:14;4.50;99.90
25556;DHT22;13447;57.174;-2.112;2023-01-15T09:04:41;4.50;99.90
25556;DHT22;13447;57.174;-2.112;2023-01-15T09:07:08;4.50;99.90
25556;DHT22;13447;57.174;-2.112;2023-01-15T09:09:35;4.50;99.90
25556;DHT22;13447;57.174;-2.112;2023-01-15T09:12:02;4.60;99.90
25556;DHT22;13447;57.174;-2.112;2023-01-15T09:14:29;4.60;99.90
25556;DHT22;13447;57.174;-2.112;2023-01-15T09:17:16;4.60;99.90
25556;DHT22;13447;57.174;-2.112;2023-01-15T09:19:43;4.60;99.90
25556;DHT22;13447;57.174;-2.112;2023-01-15T09:22:10;4.60;99.90
25556;DHT22;13447;57.174;-2.112;2023-01-15T09:24:37;4.60;99.90
25556;DHT22;13447;57.174;-2.112;2023-01-15T09:27:04;4.60;99.90
25556;DHT22;13447;57.174;-2.112;2023-01-15T09:29:31;4.60;99.90
25556;DHT22;13447;57.174;-2.112;2023-01-15T09:31:58;4.60;99.90
25556;DHT22;13447;57.174;-2.112;2023-01-15T09:34:25;4.60;99.90
25556;DHT22;13447;57.174;-2.112;2023-01-15T09:36:52;4.60;99.90
25556;DHT22;13447;57.174;-2.112;2023-01-15T09:39:19;4.60;99.90
25556;DHT22;13447;57.174;-2.112;2023-01-15T09:56:20;4.70;99.90
25556;DHT22;13447;57.174;-2.112;2023-01-15T09:58:49;4.70;99.90
25556;DHT22;13447;57.174;-2.112;2023-01-15T10:01:23;4.70;99.90
25556;DHT22;13447;57.174;-2.112;2023-01-15T10:07:08;4.70;99.90
25556;DHT22;13447;57.174;-2.112;2023-01-15T10:09:39;4.70;99.90
25556;DHT22;13447;57.174;-2.112;2023-01-15T10:12:15;4.70;99.90
25556;DHT22;13447;57.174;-2.112;2023-01-15T10:15:31;4.70;99.90
25556;DHT22;13447;57.174;-2.112;2023-01-15T10:18:01;4.70;99.90
25556;DHT22;13447;57.174;-2.112;2023-01-15T10:23:35;4.70;99.90
25556;DHT22;13447;57.174;-2.112;2023-01-15T10:26:16;4.80;99.90
25556;DHT22;13447;57.174;-2.112;2023-01-15T10:31:44;4.80;99.90
25556;DHT22;13447;57.174;-2.112;2023-01-15T10:37:36;4.80;99.90
25556;DHT22;13447;57.174;-2.112;2023-01-15T10:45:32;4.90;99.90
25556;DHT22;13447;57.174;-2.112;2023-01-15T10:50:38;4.90;99.90
25556;DHT22;13447;57.174;-2.112;2023-01-15T10:53:36;4.80;99.90
25556;DHT22;13447;57.174;-2.112;2023-01-15T10:56:11;4.90;99.90
25556;DHT22;13447;57.174;-2.112;2023-01-15T10:59:22;4.90;99.90
25556;DHT22;13447;57.174;-2.112;2023-01-15T11:01:40;4.90;99.90
25556;DHT22;13447;57.174;-2.112;2023-01-15T11:04:09;4.90;99.90
25556;DHT22;13447;57.174;-2.112;2023-01-15T11:06:39;5.00;99.90
25556;DHT22;13447;57.174;-2.112;2023-01-15T11:09:24;5.00;99.90
25556;DHT22;13447;57.174;-2.112;2023-01-15T11:12:16;5.00;99.90
25556;DHT22;13447;57.174;-2.112;2023-01-15T11:14:45;5.00;99.90
25556;DHT22;13447;57.174;-2.112;2023-01-15T11:17:37;5.00;99.90
25556;DHT22;13447;57.174;-2.112;2023-01-15T11:20:42;5.00;99.90
25556;DHT22;13447;57.174;-2.112;2023-01-15T11:23:15;5.00;99.90
25556;DHT22;13447;57.174;-2.112;2023-01-15T11:25:52;5.00;99.90
25556;DHT22;13447;57.174;-2.112;2023-01-15T11:28:33;5.20;99.90
25556;DHT22;13447;57.174;-2.112;2023-01-15T11:31:02;5.60;99.90
25556;DHT22;13447;57.174;-2.112;2023-01-15T11:33:30;6.10;99.90
25556;DHT22;13447;57.174;-2.112;2023-01-15T11:36:06;6.30;69.20
25556;DHT22;13447;57.174;-2.112;2023-01-15T11:38:44;6.30;11.70
25556;DHT22;13447;57.174;-2.112;2023-01-15T11:41:32;6.40;1.00
25556;DHT22;13447;57.174;-2.112;2023-01-15T11:44:20;6.30;1.00
25556;DHT22;13447;57.174;-2.112;2023-01-15T11:47:16;6.30;1.00
25556;DHT22;13447;57.174;-2.112;2023-01-15T11:50:15;6.30;1.00
25556;DHT22;13447;57.174;-2.112;2023-01-15T11:53:02;6.10;1.00
25556;DHT22;13447;57.174;-2.112;2023-01-15T11:55:53;6.10;1.00
25556;DHT22;13447;57.174;-2.112;2023-01-15T11:58:22;6.00;11.40
25556;DHT22;13447;57.174;-2.112;2023-01-15T12:01:58;6.10;1.00
25556;DHT22;13447;57.174;-2.112;2023-01-15T12:04:36;6.10;26.10
25556;DHT22;13447;57.174;-2.112;2023-01-15T12:07:05;6.00;1.00
25556;DHT22;13447;57.174;-2.112;2023-01-15T12:16:00;5.70;69.10
25556;DHT22;13447;57.174;-2.112;2023-01-15T12:34:05;5.60;19.30
25556;DHT22;13447;57.174;-2.112;2023-01-15T12:37:06;5.50;34.30
25556;DHT22;13447;57.174;-2.112;2023-01-15T12:42:30;5.30;33.70
25556;DHT22;13447;57.174;-2.112;2023-01-15T12:45:24;5.30;52.50
25556;DHT22;13447;57.174;-2.112;2023-01-15T12:48:01;5.40;60.60
25556;DHT22;13447;57.174;-2.112;2023-01-15T12:53:42;5.50;18.40
25556;DHT22;13447;57.174;-2.112;2023-01-15T12:56:18;5.40;42.10
25556;DHT22;13447;57.174;-2.112;2023-01-15T13:01:55;5.40;76.80
25556;DHT22;13447;57.174;-2.112;2023-01-15T13:08:59;5.40;46.60
25556;DHT22;13447;57.174;-2.112;2023-01-15T13:11:45;5.30;25.80
25556;DHT22;13447;57.174;-2.112;2023-01-15T13:14:17;5.40;26.40
25556;DHT22;13447;57.174;-2.112;2023-01-15T13:16:55;5.30;31.20
25556;DHT22;13447;57.174;-2.112;2023-01-15T13:22:28;5.10;51.20
25556;DHT22;13447;57.174;-2.112;2023-01-15T13:33:42;4.90;99.90
25556;DHT22;13447;57.174;-2.112;2023-01-15T13:36:14;4.90;99.90
25556;DHT22;13447;57.174;-2.112;2023-01-15T13:38:47;4.90;99.90
25556;DHT22;13447;57.174;-2.112;2023-01-15T13:41:26;4.80;99.90
25556;DHT22;13447;57.174;-2.112;2023-01-15T13:44:23;4.80;99.90
25556;DHT22;13447;57.174;-2.112;2023-01-15T13:47:19;4.80;90.30
25556;DHT22;13447;57.174;-2.112;2023-01-15T13:49:51;4.70;98.10
25556;DHT22;13447;57.174;-2.112;2023-01-15T13:52:29;4.70;65.20
25556;DHT22;13447;57.174;-2.112;2023-01-15T13:54:59;4.70;78.60
25556;DHT22;13447;57.174;-2.112;2023-01-15T13:57:53;4.70;95.80
25556;DHT22;13447;57.174;-2.112;2023-01-15T14:00:33;4.70;81.30
25556;DHT22;13447;57.174;-2.112;2023-01-15T14:03:23;4.70;89.00
25556;DHT22;13447;57.174;-2.112;2023-01-15T14:06:01;4.70;86.70
25556;DHT22;13447;57.174;-2.112;2023-01-15T14:08:43;4.60;98.20
25556;DHT22;13447;57.174;-2.112;2023-01-15T14:11:54;4.70;99.90
25556;DHT22;13447;57.174;-2.112;2023-01-15T14:17:32;4.70;82.50
25556;DHT22;13447;57.174;-2.112;2023-01-15T14:23:35;4.70;81.00
25556;DHT22;13447;57.174;-2.112;2023-01-15T14:26:19;4.60;42.70
25556;DHT22;13447;57.174;-2.112;2023-01-15T14:31:49;4.50;98.80
25556;DHT22;13447;57.174;-2.112;2023-01-15T14:34:28;4.60;56.40
25556;DHT22;13447;57.174;-2.112;2023-01-15T14:39:50;4.50;99.90
25556;DHT22;13447;57.174;-2.112;2023-01-15T14:47:49;4.50;99.90
25556;DHT22;13447;57.174;-2.112;2023-01-15T14:53:21;4.40;99.90
25556;DHT22;13447;57.174;-2.112;2023-01-15T14:56:17;4.40;99.90
25556;DHT22;13447;57.174;-2.112;2023-01-15T15:04:37;4.30;99.90
25556;DHT22;13447;57.174;-2.112;2023-01-15T15:07:13;4.30;99.90
25556;DHT22;13447;57.174;-2.112;2023-01-15T15:10:08;4.30;99.90
25556;DHT22;13447;57.174;-2.112;2023-01-15T15:13:01;4.20;99.90
25556;DHT22;13447;57.174;-2.112;2023-01-15T15:21:04;4.10;99.90
25556;DHT22;13447;57.174;-2.112;2023-01-15T15:23:58;4.00;99.90
25556;DHT22;13447;57.174;-2.112;2023-01-15T15:26:31;4.00;99.90
25556;DHT22;13447;57.174;-2.112;2023-01-15T15:31:40;4.00;99.90
25556;DHT22;13447;57.174;-2.112;2023-01-15T15:34:23;3.90;99.90
25556;DHT22;13447;57.174;-2.112;2023-01-15T15:36:56;3.80;99.90
25556;DHT22;13447;57.174;-2.112;2023-01-15T15:45:19;3.90;62.90
25556;DHT22;13447;57.174;-2.112;2023-01-15T15:48:30;3.90;76.90
25556;DHT22;13447;57.174;-2.112;2023-01-15T15:51:30;3.80;75.50
25556;DHT22;13447;57.174;-2.112;2023-01-15T15:54:23;3.80;96.40
25556;DHT22;13447;57.174;-2.112;2023-01-15T15:59:55;3.60;99.90
25556;DHT22;13447;57.174;-2.112;2023-01-15T16:02:33;3.60;99.90
25556;DHT22;13447;57.174;-2.112;2023-01-15T16:05:26;3.60;99.90
25556;DHT22;13447;57.174;-2.112;2023-01-15T16:08:08;3.60;99.90
25556;DHT22;13447;57.174;-2.112;2023-01-15T16:10:43;3.70;99.90
25556;DHT22;13447;57.174;-2.112;2023-01-15T16:13:17;3.70;99.90
25556;DHT22;13447;57.174;-2.112;2023-01-15T16:15:46;3.70;99.90
25556;DHT22;13447;57.174;-2.112;2023-01-15T16:18:40;3.70;99.90
25556;DHT22;13447;57.174;-2.112;2023-01-15T16:21:17;3.70;99.90
25556;DHT22;13447;57.174;-2.112;2023-01-15T16:23:56;3.80;99.90
25556;DHT22;13447;57.174;-2.112;2023-01-15T16:26:35;3.80;93.50
25556;DHT22;13447;57.174;-2.112;2023-01-15T16:29:05;3.80;67.30
25556;DHT22;13447;57.174;-2.112;2023-01-15T16:31:34;3.70;89.80
25556;DHT22;13447;57.174;-2.112;2023-01-15T16:34:03;3.70;91.20
25556;DHT22;13447;57.174;-2.112;2023-01-15T16:36:40;3.70;99.90
25556;DHT22;13447;57.174;-2.112;2023-01-15T16:41:47;3.60;99.90
25556;DHT22;13447;57.174;-2.112;2023-01-15T16:46:58;3.60;93.20
25556;DHT22;13447;57.174;-2.112;2023-01-15T16:49:30;3.60;99.90
25556;DHT22;13447;57.174;-2.112;2023-01-15T16:52:00;3.50;71.50
25556;DHT22;13447;57.174;-2.112;2023-01-15T17:02:14;3.50;99.90
25556;DHT22;13447;57.174;-2.112;2023-01-15T17:04:43;3.50;99.90
25556;DHT22;13447;57.174;-2.112;2023-01-15T17:07:18;3.50;99.90
25556;DHT22;13447;57.174;-2.112;2023-01-15T17:09:52;3.60;99.90
25556;DHT22;13447;57.174;-2.112;2023-01-15T17:12:34;3.50;99.90
25556;DHT22;13447;57.174;-2.112;2023-01-15T17:17:41;3.40;99.90
25556;DHT22;13447;57.174;-2.112;2023-01-15T17:20:10;3.30;99.90
25556;DHT22;13447;57.174;-2.112;2023-01-15T17:22:40;3.20;99.90
25556;DHT22;13447;57.174;-2.112;2023-01-15T17:25:32;3.10;99.90
25556;DHT22;13447;57.174;-2.112;2023-01-15T17:28:02;3.00;99.90
25556;DHT22;13447;57.174;-2.112;2023-01-15T17:30:30;2.90;99.90
25556;DHT22;13447;57.174;-2.112;2023-01-15T17:32:58;2.90;99.90
25556;DHT22;13447;57.174;-2.112;2023-01-15T17:35:31;2.90;99.90
25556;DHT22;13447;57.174;-2.112;2023-01-15T17:37:58;2.80;99.90
25556;DHT22;13447;57.174;-2.112;2023-01-15T17:40:26;2.90;99.90
25556;DHT22;13447;57.174;-2.112;2023-01-15T17:42:53;2.90;99.90
25556;DHT22;13447;57.174;-2.112;2023-01-15T17:45:23;2.90;99.90
25556;DHT22;13447;57.174;-2.112;2023-01-15T17:47:51;3.00;99.90
25556;DHT22;13447;57.174;-2.112;2023-01-15T17:50:18;3.00;99.90
25556;DHT22;13447;57.174;-2.112;2023-01-15T17:52:46;3.00;99.90
25556;DHT22;13447;57.174;-2.112;2023-01-15T17:55:17;3.00;99.90
25556;DHT22;13447;57.174;-2.112;2023-01-15T17:58:03;3.10;99.90
25556;DHT22;13447;57.174;-2.112;2023-01-15T18:00:49;3.00;99.90
25556;DHT22;13447;57.174;-2.112;2023-01-15T18:03:52;3.10;99.90
25556;DHT22;13447;57.174;-2.112;2023-01-15T18:07:04;3.00;99.90
25556;DHT22;13447;57.174;-2.112;2023-01-15T18:09:32;2.90;99.90
25556;DHT22;13447;57.174;-2.112;2023-01-15T18:12:00;2.90;99.90
25556;DHT22;13447;57.174;-2.112;2023-01-15T18:14:30;2.90;99.90
25556;DHT22;13447;57.174;-2.112;2023-01-15T18:17:06;2.90;99.90
25556;DHT22;13447;57.174;-2.112;2023-01-15T18:19:43;2.90;99.90
25556;DHT22;13447;57.174;-2.112;2023-01-15T18:22:10;2.90;99.90
25556;DHT22;13447;57.174;-2.112;2023-01-15T18:24:39;2.90;99.90
25556;DHT22;13447;57.174;-2.112;2023-01-15T18:27:08;2.80;99.90
25556;DHT22;13447;57.174;-2.112;2023-01-15T18:29:35;2.90;99.90
25556;DHT22;13447;57.174;-2.112;2023-01-15T18:32:06;2.90;99.90
25556;DHT22;13447;57.174;-2.112;2023-01-15T18:34:35;2.80;99.90
25556;DHT22;13447;57.174;-2.112;2023-01-15T18:37:03;2.80;99.90
25556;DHT22;13447;57.174;-2.112;2023-01-15T18:39:30;2.80;99.90
25556;DHT22;13447;57.174;-2.112;2023-01-15T18:41:57;2.80;99.90
25556;DHT22;13447;57.174;-2.112;2023-01-15T18:44:24;2.80;99.90
25556;DHT22;13447;57.174;-2.112;2023-01-15T18:47:24;2.80;99.90
25556;DHT22;13447;57.174;-2.112;2023-01-15T18:49:52;2.80;99.90
25556;DHT22;13447;57.174;-2.112;2023-01-15T18:52:21;2.80;99.90
25556;DHT22;13447;57.174;-2.112;2023-01-15T18:55:26;2.70;99.90
25556;DHT22;13447;57.174;-2.112;2023-01-15T18:57:54;2.70;99.90